sensor_id;sensor_type;location;lat;lon;timestamp;P1;durP1;ratioP1;P2;durP2;ratioP2
15915;SDS011;8057;47.830;-3.870;2023-02-28T00:04:53;8.27;;;3.07;;
15915;SDS011;8057;47.830;-3.870;2023-02-28T00:09:25;4.83;;;3.53;;
15915;SDS011;8057;47.830;-3.870;2023-02-28T00:14:01;5.27;;;3.73;;
15915;SDS011;8057;47.830;-3.870;2023-02-28T00:18:33;6.53;;;3.63;;
15915;SDS011;8057;47.830;-3.870;2023-02-28T00:23:02;5.13;;;3.67;;
15915;SDS011;8057;47.830;-3.870;2023-02-28T00:27:15;8.77;;;3.67;;
15915;SDS011;8057;47.830;-3.870;2023-02-28T00:36:27;7.40;;;4.20;;
15915;SDS011;8057;47.830;-3.870;2023-02-28T00:41:00;7.10;;;3.63;;
15915;SDS011;8057;47.830;-3.870;2023-02-28T00:45:38;7.13;;;3.00;;
15915;SDS011;8057;47.830;-3.870;2023-02-28T00:50:06;7.43;;;3.30;;
15915;SDS011;8057;47.830;-3.870;2023-02-28T00:54:40;6.13;;;3.30;;
15915;SDS011;8057;47.830;-3.870;2023-02-28T00:58:53;5.53;;;3.00;;
15915;SDS011;8057;47.830;-3.870;2023-02-28T01:03:32;7.07;;;3.30;;
15915;SDS011;8057;47.830;-3.870;2023-02-28T01:08:01;7.00;;;3.10;;
15915;SDS011;8057;47.830;-3.870;2023-02-28T01:17:24;5.97;;;3.40;;
15915;SDS011;8057;47.830;-3.870;2023-02-28T01:22:09;9.40;;;3.50;;
15915;SDS011;8057;47.830;-3.870;2023-02-28T01:26:28;8.30;;;3.50;;
15915;SDS011;8057;47.830;-3.870;2023-02-28T01:30:42;9.00;;;3.30;;
15915;SDS011;8057;47.830;-3.870;2023-02-28T01:35:18;7.73;;;3.60;;
15915;SDS011;8057;47.830;-3.870;2023-02-28T01:39:33;8.90;;;3.00;;
15915;SDS011;8057;47.830;-3.870;2023-02-28T01:44:01;8.17;;;3.40;;
15915;SDS011;8057;47.830;-3.870;2023-02-28T01:48:19;7.93;;;3.03;;
15915;SDS011;8057;47.830;-3.870;2023-02-28T01:52:51;5.87;;;2.97;;
15915;SDS011;8057;47.830;-3.870;2023-02-28T01:57:07;7.67;;;3.77;;
15915;SDS011;8057;47.830;-3.870;2023-02-28T02:01:32;9.93;;;3.50;;
15915;SDS011;8057;47.830;-3.870;2023-02-28T02:06:05;6.97;;;3.20;;
15915;SDS011;8057;47.830;-3.870;2023-02-28T02:10:47;5.83;;;2.60;;
15915;SDS011;8057;47.830;-3.870;2023-02-28T02:15:06;8.87;;;3.60;;
15915;SDS011;8057;47.830;-3.870;2023-02-28T02:19:29;12.93;;;3.77;;
15915;SDS011;8057;47.830;-3.870;2023-02-28T02:29:03;9.43;;;3.13;;
15915;SDS011;8057;47.830;-3.870;2023-02-28T02:33:48;6.03;;;2.70;;
15915;SDS011;8057;47.830;-3.870;2023-02-28T02:38:31;8.10;;;2.70;;
15915;SDS011;8057;47.830;-3.870;2023-02-28T02:42:55;7.40;;;2.40;;
15915;SDS011;8057;47.830;-3.870;2023-02-28T02:47:20;5.03;;;2.90;;
15915;SDS011;8057;47.830;-3.870;2023-02-28T02:51:51;4.00;;;2.47;;
15915;SDS011;8057;47.830;-3.870;2023-02-28T02:56:21;3.93;;;2.40;;
15915;SDS011;8057;47.830;-3.870;2023-02-28T03:00:45;5.07;;;2.30;;
15915;SDS011;8057;47.830;-3.870;2023-02-28T03:05:12;5.13;;;2.47;;
15915;SDS011;8057;47.830;-3.870;2023-02-28T03:09:34;3.83;;;2.70;;
15915;SDS011;8057;47.830;-3.870;2023-02-28T03:18:46;5.80;;;2.83;;
15915;SDS011;8057;47.830;-3.870;2023-02-28T03:23:21;10.70;;;3.60;;
15915;SDS011;8057;47.830;-3.870;2023-02-28T03:28:02;7.03;;;3.47;;
15915;SDS011;8057;47.830;-3.870;2023-02-28T03:32:28;4.97;;;3.00;;
15915;SDS011;8057;47.830;-3.870;2023-02-28T03:36:45;9.57;;;3.33;;
15915;SDS011;8057;47.830;-3.870;2023-02-28T03:41:04;7.07;;;3.33;;
15915;SDS011;8057;47.830;-3.870;2023-02-28T03:50:17;7.03;;;3.40;;
15915;SDS011;8057;47.830;-3.870;2023-02-28T03:54:46;10.50;;;3.67;;
15915;SDS011;8057;47.830;-3.870;2023-02-28T03:59:05;9.00;;;3.27;;
15915;SDS011;8057;47.830;-3.870;2023-02-28T04:03:30;7.23;;;3.40;;
15915;SDS011;8057;47.830;-3.870;2023-02-28T04:08:03;8.50;;;3.60;;
15915;SDS011;8057;47.830;-3.870;2023-02-28T04:12:28;9.10;;;3.30;;
15915;SDS011;8057;47.830;-3.870;2023-02-28T04:16:56;6.23;;;3.23;;
15915;SDS011;8057;47.830;-3.870;2023-02-28T04:21:29;6.70;;;2.80;;
15915;SDS011;8057;47.830;-3.870;2023-02-28T04:26:11;5.90;;;3.13;;
15915;SDS011;8057;47.830;-3.870;2023-02-28T04:30:29;5.87;;;3.13;;
15915;SDS011;8057;47.830;-3.870;2023-02-28T04:34:53;8.10;;;3.30;;
15915;SDS011;8057;47.830;-3.870;2023-02-28T04:39:13;8.80;;;3.20;;
15915;SDS011;8057;47.830;-3.870;2023-02-28T04:43:33;8.60;;;3.57;;
15915;SDS011;8057;47.830;-3.870;2023-02-28T04:47:50;5.67;;;3.47;;
15915;SDS011;8057;47.830;-3.870;2023-02-28T04:52:09;7.33;;;3.47;;
15915;SDS011;8057;47.830;-3.870;2023-02-28T04:56:24;9.17;;;3.63;;
15915;SDS011;8057;47.830;-3.870;2023-02-28T05:00:47;9.97;;;3.73;;
15915;SDS011;8057;47.830;-3.870;2023-02-28T05:05:13;10.17;;;3.90;;
15915;SDS011;8057;47.830;-3.870;2023-02-28T05:09:26;7.83;;;4.17;;
15915;SDS011;8057;47.830;-3.870;2023-02-28T05:13:56;9.70;;;4.00;;
15915;SDS011;8057;47.830;-3.870;2023-02-28T05:18:12;8.13;;;4.27;;
15915;SDS011;8057;47.830;-3.870;2023-02-28T05:22:25;9.67;;;4.43;;
15915;SDS011;8057;47.830;-3.870;2023-02-28T05:26:53;7.37;;;4.37;;
15915;SDS011;8057;47.830;-3.870;2023-02-28T05:31:05;11.13;;;4.97;;
15915;SDS011;8057;47.830;-3.870;2023-02-28T05:35:22;9.60;;;5.20;;
15915;SDS011;8057;47.830;-3.870;2023-02-28T05:39:35;7.90;;;4.97;;
15915;SDS011;8057;47.830;-3.870;2023-02-28T05:43:50;9.43;;;6.23;;
15915;SDS011;8057;47.830;-3.870;2023-02-28T05:48:05;8.53;;;5.73;;
15915;SDS011;8057;47.830;-3.870;2023-02-28T05:52:21;10.70;;;6.17;;
15915;SDS011;8057;47.830;-3.870;2023-02-28T05:56:58;10.07;;;6.07;;
15915;SDS011;8057;47.830;-3.870;2023-02-28T06:01:33;10.10;;;6.40;;
15915;SDS011;8057;47.830;-3.870;2023-02-28T06:05:59;10.97;;;6.53;;
15915;SDS011;8057;47.830;-3.870;2023-02-28T06:10:12;7.17;;;5.70;;
15915;SDS011;8057;47.830;-3.870;2023-02-28T06:14:22;9.50;;;6.07;;
15915;SDS011;8057;47.830;-3.870;2023-02-28T06:18:35;11.00;;;6.70;;
15915;SDS011;8057;47.830;-3.870;2023-02-28T06:22:47;9.30;;;6.47;;
15915;SDS011;8057;47.830;-3.870;2023-02-28T06:27:02;9.13;;;6.37;;
15915;SDS011;8057;47.830;-3.870;2023-02-28T06:31:14;10.00;;;6.40;;
15915;SDS011;8057;47.830;-3.870;2023-02-28T06:35:29;10.80;;;6.17;;
15915;SDS011;8057;47.830;-3.870;2023-02-28T06:39:43;6.47;;;5.70;;
15915;SDS011;8057;47.830;-3.870;2023-02-28T06:43:56;7.03;;;5.47;;
15915;SDS011;8057;47.830;-3.870;2023-02-28T06:48:07;5.80;;;5.23;;
15915;SDS011;8057;47.830;-3.870;2023-02-28T06:52:17;8.43;;;5.77;;
15915;SDS011;8057;47.830;-3.870;2023-02-28T06:56:32;9.30;;;6.30;;
15915;SDS011;8057;47.830;-3.870;2023-02-28T07:00:43;7.93;;;6.23;;
15915;SDS011;8057;47.830;-3.870;2023-02-28T07:04:54;7.60;;;6.63;;
15915;SDS011;8057;47.830;-3.870;2023-02-28T07:13:15;12.27;;;8.23;;
15915;SDS011;8057;47.830;-3.870;2023-02-28T07:17:27;8.30;;;7.50;;
15915;SDS011;8057;47.830;-3.870;2023-02-28T07:21:40;10.33;;;8.03;;
15915;SDS011;8057;47.830;-3.870;2023-02-28T07:25:51;11.80;;;8.63;;
15915;SDS011;8057;47.830;-3.870;2023-02-28T07:30:07;11.10;;;7.63;;
15915;SDS011;8057;47.830;-3.870;2023-02-28T07:34:20;8.40;;;7.47;;
15915;SDS011;8057;47.830;-3.870;2023-02-28T07:38:33;10.87;;;8.23;;
15915;SDS011;8057;47.830;-3.870;2023-02-28T07:42:58;8.10;;;6.93;;
15915;SDS011;8057;47.830;-3.870;2023-02-28T07:47:12;11.37;;;7.67;;
15915;SDS011;8057;47.830;-3.870;2023-02-28T07:51:22;8.77;;;7.53;;
15915;SDS011;8057;47.830;-3.870;2023-02-28T07:55:32;11.13;;;8.23;;
15915;SDS011;8057;47.830;-3.870;2023-02-28T07:59:42;14.53;;;7.40;;
15915;SDS011;8057;47.830;-3.870;2023-02-28T08:03:54;12.10;;;7.83;;
15915;SDS011;8057;47.830;-3.870;2023-02-28T08:08:04;10.70;;;7.07;;
15915;SDS011;8057;47.830;-3.870;2023-02-28T08:12:13;10.80;;;6.37;;
15915;SDS011;8057;47.830;-3.870;2023-02-28T08:16:23;10.50;;;6.47;;
15915;SDS011;8057;47.830;-3.870;2023-02-28T08:20:36;9.30;;;6.00;;
15915;SDS011;8057;47.830;-3.870;2023-02-28T08:24:45;10.87;;;7.47;;
15915;SDS011;8057;47.830;-3.870;2023-02-28T08:28:56;10.73;;;6.93;;
15915;SDS011;8057;47.830;-3.870;2023-02-28T08:33:07;9.27;;;7.87;;
15915;SDS011;8057;47.830;-3.870;2023-02-28T08:37:19;13.27;;;8.83;;
15915;SDS011;8057;47.830;-3.870;2023-02-28T08:50:08;12.17;;;9.90;;
15915;SDS011;8057;47.830;-3.870;2023-02-28T08:54:23;12.23;;;10.60;;
15915;SDS011;8057;47.830;-3.870;2023-02-28T09:03:21;14.97;;;12.23;;
15915;SDS011;8057;47.830;-3.870;2023-02-28T09:07:36;14.43;;;12.93;;
15915;SDS011;8057;47.830;-3.870;2023-02-28T09:21:02;14.90;;;13.37;;
15915;SDS011;8057;47.830;-3.870;2023-02-28T09:25:17;15.67;;;14.07;;
15915;SDS011;8057;47.830;-3.870;2023-02-28T09:29:39;15.63;;;14.00;;
15915;SDS011;8057;47.830;-3.870;2023-02-28T09:33:53;15.20;;;13.80;;
15915;SDS011;8057;47.830;-3.870;2023-02-28T09:38:05;15.73;;;14.20;;
15915;SDS011;8057;47.830;-3.870;2023-02-28T09:42:18;15.70;;;14.23;;
15915;SDS011;8057;47.830;-3.870;2023-02-28T09:46:34;15.27;;;13.87;;
15915;SDS011;8057;47.830;-3.870;2023-02-28T09:50:49;14.97;;;13.60;;
15915;SDS011;8057;47.830;-3.870;2023-02-28T09:55:08;14.77;;;13.33;;
15915;SDS011;8057;47.830;-3.870;2023-02-28T09:59:31;14.93;;;13.63;;
15915;SDS011;8057;47.830;-3.870;2023-02-28T10:04:14;13.67;;;12.27;;
15915;SDS011;8057;47.830;-3.870;2023-02-28T10:08:35;13.90;;;12.60;;
15915;SDS011;8057;47.830;-3.870;2023-02-28T10:13:02;13.53;;;11.87;;
15915;SDS011;8057;47.830;-3.870;2023-02-28T10:17:17;11.63;;;10.60;;
15915;SDS011;8057;47.830;-3.870;2023-02-28T10:21:31;12.37;;;11.20;;
15915;SDS011;8057;47.830;-3.870;2023-02-28T10:25:59;13.07;;;10.77;;
15915;SDS011;8057;47.830;-3.870;2023-02-28T10:30:38;11.80;;;10.70;;
15915;SDS011;8057;47.830;-3.870;2023-02-28T10:34:50;11.60;;;10.50;;
15915;SDS011;8057;47.830;-3.870;2023-02-28T10:39:00;11.57;;;10.50;;
15915;SDS011;8057;47.830;-3.870;2023-02-28T10:43:21;11.40;;;10.43;;
15915;SDS011;8057;47.830;-3.870;2023-02-28T10:47:35;11.70;;;10.70;;
15915;SDS011;8057;47.830;-3.870;2023-02-28T10:51:53;12.93;;;10.57;;
15915;SDS011;8057;47.830;-3.870;2023-02-28T10:56:14;12.13;;;10.97;;
15915;SDS011;8057;47.830;-3.870;2023-02-28T11:00:32;11.07;;;9.40;;
15915;SDS011;8057;47.830;-3.870;2023-02-28T11:04:46;10.57;;;9.60;;
15915;SDS011;8057;47.830;-3.870;2023-02-28T11:09:18;11.97;;;10.80;;
15915;SDS011;8057;47.830;-3.870;2023-02-28T11:13:34;9.50;;;8.60;;
15915;SDS011;8057;47.830;-3.870;2023-02-28T11:17:45;8.60;;;7.90;;
15915;SDS011;8057;47.830;-3.870;2023-02-28T11:22:04;8.93;;;8.23;;
15915;SDS011;8057;47.830;-3.870;2023-02-28T11:26:15;7.93;;;7.23;;
15915;SDS011;8057;47.830;-3.870;2023-02-28T11:30:45;8.03;;;7.33;;
15915;SDS011;8057;47.830;-3.870;2023-02-28T11:35:01;8.90;;;8.10;;
15915;SDS011;8057;47.830;-3.870;2023-02-28T11:43:56;7.30;;;6.70;;
15915;SDS011;8057;47.830;-3.870;2023-02-28T11:48:24;11.50;;;9.20;;
15915;SDS011;8057;47.830;-3.870;2023-02-28T11:52:43;10.00;;;8.97;;
15915;SDS011;8057;47.830;-3.870;2023-02-28T11:57:10;9.23;;;8.37;;
15915;SDS011;8057;47.830;-3.870;2023-02-28T12:01:35;7.60;;;6.90;;
15915;SDS011;8057;47.830;-3.870;2023-02-28T12:05:57;9.13;;;6.80;;
15915;SDS011;8057;47.830;-3.870;2023-02-28T12:10:20;5.57;;;5.20;;
15915;SDS011;8057;47.830;-3.870;2023-02-28T12:14:42;6.40;;;5.80;;
15915;SDS011;8057;47.830;-3.870;2023-02-28T12:19:24;5.77;;;5.23;;
15915;SDS011;8057;47.830;-3.870;2023-02-28T12:23:47;4.90;;;4.57;;
15915;SDS011;8057;47.830;-3.870;2023-02-28T12:33:02;5.83;;;5.23;;
15915;SDS011;8057;47.830;-3.870;2023-02-28T12:37:22;5.67;;;5.27;;
15915;SDS011;8057;47.830;-3.870;2023-02-28T12:41:39;4.90;;;4.53;;
15915;SDS011;8057;47.830;-3.870;2023-02-28T12:46:09;5.80;;;5.30;;
15915;SDS011;8057;47.830;-3.870;2023-02-28T12:50:40;4.83;;;4.43;;
15915;SDS011;8057;47.830;-3.870;2023-02-28T12:59:56;4.70;;;4.30;;
15915;SDS011;8057;47.830;-3.870;2023-02-28T13:04:24;4.73;;;4.33;;
15915;SDS011;8057;47.830;-3.870;2023-02-28T13:09:00;4.73;;;4.43;;
15915;SDS011;8057;47.830;-3.870;2023-02-28T13:13:14;4.60;;;4.20;;
15915;SDS011;8057;47.830;-3.870;2023-02-28T13:17:27;4.87;;;4.43;;
15915;SDS011;8057;47.830;-3.870;2023-02-28T13:21:42;4.53;;;4.20;;
15915;SDS011;8057;47.830;-3.870;2023-02-28T13:25:55;4.77;;;4.37;;
15915;SDS011;8057;47.830;-3.870;2023-02-28T13:39:47;4.90;;;4.40;;
15915;SDS011;8057;47.830;-3.870;2023-02-28T13:44:02;4.90;;;4.43;;
15915;SDS011;8057;47.830;-3.870;2023-02-28T13:52:35;4.50;;;4.10;;
15915;SDS011;8057;47.830;-3.870;2023-02-28T13:57:04;4.00;;;3.67;;
15915;SDS011;8057;47.830;-3.870;2023-02-28T14:01:44;3.77;;;3.47;;
15915;SDS011;8057;47.830;-3.870;2023-02-28T14:20:04;3.80;;;3.03;;
15915;SDS011;8057;47.830;-3.870;2023-02-28T14:24:29;4.20;;;3.80;;
15915;SDS011;8057;47.830;-3.870;2023-02-28T14:33:21;4.87;;;4.33;;
15915;SDS011;8057;47.830;-3.870;2023-02-28T14:37:38;4.37;;;4.00;;
15915;SDS011;8057;47.830;-3.870;2023-02-28T14:41:53;4.57;;;4.17;;
15915;SDS011;8057;47.830;-3.870;2023-02-28T14:46:05;3.87;;;3.47;;
15915;SDS011;8057;47.830;-3.870;2023-02-28T14:50:31;5.73;;;3.63;;
15915;SDS011;8057;47.830;-3.870;2023-02-28T14:54:52;5.67;;;4.20;;
15915;SDS011;8057;47.830;-3.870;2023-02-28T14:59:20;4.87;;;4.03;;
15915;SDS011;8057;47.830;-3.870;2023-02-28T15:03:39;5.03;;;4.53;;
15915;SDS011;8057;47.830;-3.870;2023-02-28T15:08:00;4.60;;;4.20;;
15915;SDS011;8057;47.830;-3.870;2023-02-28T15:12:30;5.43;;;4.70;;
15915;SDS011;8057;47.830;-3.870;2023-02-28T15:16:40;4.87;;;4.33;;
15915;SDS011;8057;47.830;-3.870;2023-02-28T15:20:53;4.33;;;4.03;;
15915;SDS011;8057;47.830;-3.870;2023-02-28T15:25:25;4.43;;;4.03;;
15915;SDS011;8057;47.830;-3.870;2023-02-28T15:29:41;4.60;;;4.30;;
15915;SDS011;8057;47.830;-3.870;2023-02-28T15:33:58;7.17;;;5.53;;
15915;SDS011;8057;47.830;-3.870;2023-02-28T15:38:14;6.30;;;5.70;;
15915;SDS011;8057;47.830;-3.870;2023-02-28T15:42:27;6.63;;;5.33;;
15915;SDS011;8057;47.830;-3.870;2023-02-28T15:46:43;5.67;;;5.17;;
15915;SDS011;8057;47.830;-3.870;2023-02-28T15:51:06;5.33;;;4.83;;
15915;SDS011;8057;47.830;-3.870;2023-02-28T15:55:18;4.90;;;4.50;;
15915;SDS011;8057;47.830;-3.870;2023-02-28T15:59:29;5.80;;;5.30;;
15915;SDS011;8057;47.830;-3.870;2023-02-28T16:03:43;5.60;;;5.20;;
15915;SDS011;8057;47.830;-3.870;2023-02-28T16:07:54;6.17;;;5.20;;
15915;SDS011;8057;47.830;-3.870;2023-02-28T16:12:04;3.90;;;3.60;;
15915;SDS011;8057;47.830;-3.870;2023-02-28T16:16:20;5.30;;;3.30;;
15915;SDS011;8057;47.830;-3.870;2023-02-28T16:20:33;3.33;;;3.03;;
15915;SDS011;8057;47.830;-3.870;2023-02-28T16:24:44;4.43;;;3.17;;
15915;SDS011;8057;47.830;-3.870;2023-02-28T16:28:56;3.37;;;3.00;;
15915;SDS011;8057;47.830;-3.870;2023-02-28T16:33:07;4.60;;;2.80;;
15915;SDS011;8057;47.830;-3.870;2023-02-28T16:37:18;2.87;;;2.30;;
15915;SDS011;8057;47.830;-3.870;2023-02-28T16:41:29;4.37;;;2.43;;
15915;SDS011;8057;47.830;-3.870;2023-02-28T16:45:39;4.50;;;2.50;;
15915;SDS011;8057;47.830;-3.870;2023-02-28T16:49:49;5.77;;;2.63;;
15915;SDS011;8057;47.830;-3.870;2023-02-28T16:54:01;2.83;;;2.30;;
15915;SDS011;8057;47.830;-3.870;2023-02-28T16:58:13;3.00;;;1.47;;
15915;SDS011;8057;47.830;-3.870;2023-02-28T17:02:24;3.57;;;1.90;;
15915;SDS011;8057;47.830;-3.870;2023-02-28T17:06:34;3.30;;;1.43;;
15915;SDS011;8057;47.830;-3.870;2023-02-28T17:10:45;2.10;;;1.30;;
15915;SDS011;8057;47.830;-3.870;2023-02-28T17:47:53;4.07;;;1.70;;
15915;SDS011;8057;47.830;-3.870;2023-02-28T17:56:32;2.53;;;2.33;;
15915;SDS011;8057;47.830;-3.870;2023-02-28T20:03:48;5.77;;;3.00;;
15915;SDS011;8057;47.830;-3.870;2023-02-28T20:13:18;4.37;;;2.33;;
15915;SDS011;8057;47.830;-3.870;2023-02-28T21:22:39;5.63;;;3.73;;
15915;SDS011;8057;47.830;-3.870;2023-02-28T21:27:41;4.40;;;3.67;;
15915;SDS011;8057;47.830;-3.870;2023-02-28T21:32:20;5.03;;;4.03;;
15915;SDS011;8057;47.830;-3.870;2023-02-28T21:42:04;5.47;;;4.10;;
15915;SDS011;8057;47.830;-3.870;2023-02-28T21:50:55;5.40;;;4.87;;
15915;SDS011;8057;47.830;-3.870;2023-02-28T21:55:08;7.83;;;4.93;;
15915;SDS011;8057;47.830;-3.870;2023-02-28T21:59:22;5.07;;;4.47;;
15915;SDS011;8057;47.830;-3.870;2023-02-28T22:08:16;5.60;;;4.73;;
15915;SDS011;8057;47.830;-3.870;2023-02-28T22:12:27;6.10;;;4.60;;
15915;SDS011;8057;47.830;-3.870;2023-02-28T22:16:58;4.03;;;3.60;;
15915;SDS011;8057;47.830;-3.870;2023-02-28T22:25:44;3.70;;;3.00;;
15915;SDS011;8057;47.830;-3.870;2023-02-28T22:29:55;3.77;;;2.37;;
15915;SDS011;8057;47.830;-3.870;2023-02-28T22:34:05;3.77;;;3.37;;
15915;SDS011;8057;47.830;-3.870;2023-02-28T22:38:25;3.63;;;3.10;;
15915;SDS011;8057;47.830;-3.870;2023-02-28T22:47:57;2.67;;;2.30;;
15915;SDS011;8057;47.830;-3.870;2023-02-28T22:56:47;3.67;;;2.30;;
15915;SDS011;8057;47.830;-3.870;2023-02-28T23:02:20;1.90;;;1.60;;
